createdAt,value
2018-12-20T00:00:52.928Z,25.87
2018-12-20T00:02:59.845Z,25.86
2018-12-20T00:05:06.613Z,25.75
2018-12-20T00:07:13.238Z,25.70
2018-12-20T00:09:19.897Z,25.70
2018-12-20T00:11:26.606Z,25.67
2018-12-20T00:13:33.211Z,25.77
2018-12-20T00:15:40.033Z,25.77
2018-12-20T00:17:49.926Z,25.68
2018-12-20T00:19:56.819Z,25.64
2018-12-20T00:22:03.462Z,25.54
2018-12-20T00:24:10.081Z,25.52
2018-12-20T00:26:17.192Z,25.50
2018-12-20T00:28:23.891Z,25.42
2018-12-20T00:30:30.571Z,25.33
2018-12-20T00:32:37.401Z,25.39
2018-12-20T00:34:44.248Z,25.21
2018-12-20T00:36:51.098Z,25.36
2018-12-20T00:38:57.746Z,25.28
2018-12-20T00:41:05.032Z,25.31
2018-12-20T00:43:11.879Z,25.35
2018-12-20T00:45:18.500Z,25.48
2018-12-20T00:47:25.203Z,25.58
2018-12-20T00:49:31.637Z,25.60
2018-12-20T00:51:38.352Z,25.70
2018-12-20T00:53:44.951Z,25.73
2018-12-20T00:55:51.750Z,25.53
2018-12-20T00:57:58.358Z,25.35
2018-12-20T01:00:05.363Z,25.21
2018-12-20T01:02:12.110Z,25.18
2018-12-20T01:04:18.722Z,25.20
2018-12-20T01:06:25.568Z,25.30
2018-12-20T01:08:32.325Z,25.34
2018-12-20T01:10:39.065Z,25.29
2018-12-20T01:12:45.939Z,25.31
2018-12-20T01:14:52.302Z,25.45
2018-12-20T01:16:59.270Z,25.31
2018-12-20T01:19:05.923Z,25.19
2018-12-20T01:21:12.791Z,25.18
2018-12-20T01:23:19.543Z,25.28
2018-12-20T01:25:26.357Z,25.22
2018-12-20T01:27:32.922Z,25.22
2018-12-20T01:29:39.828Z,25.23
2018-12-20T01:31:46.644Z,25.20
2018-12-20T01:33:53.351Z,25.23
2018-12-20T01:36:00.546Z,25.29
2018-12-20T01:38:07.221Z,25.30
2018-12-20T01:40:13.947Z,25.17
2018-12-20T01:42:20.774Z,25.10
2018-12-20T01:44:27.473Z,25.14
2018-12-20T01:46:34.398Z,25.12
2018-12-20T01:48:40.801Z,25.15
2018-12-20T01:50:47.660Z,25.14
2018-12-20T01:52:54.099Z,25.11
2018-12-20T01:55:00.979Z,25.16
2018-12-20T01:57:07.617Z,25.12
2018-12-20T01:59:14.478Z,24.99
2018-12-20T02:01:21.378Z,25.12
2018-12-20T02:03:28.080Z,25.12
2018-12-20T02:05:34.967Z,25.14
2018-12-20T02:07:41.488Z,25.17
2018-12-20T02:09:48.311Z,25.11
2018-12-20T02:11:54.895Z,25.05
2018-12-20T02:14:01.598Z,25.03
2018-12-20T02:16:08.248Z,25.06
2018-12-20T02:18:15.106Z,25.01
2018-12-20T02:20:21.729Z,24.99
2018-12-20T02:22:29.023Z,24.96
2018-12-20T02:24:35.780Z,24.98
2018-12-20T02:26:42.842Z,25.12
2018-12-20T02:28:49.784Z,25.18
2018-12-20T02:30:56.548Z,25.26
2018-12-20T02:33:03.326Z,25.31
2018-12-20T02:35:10.351Z,25.32
2018-12-20T02:37:17.617Z,25.23
2018-12-20T02:39:24.083Z,25.14
2018-12-20T02:41:30.825Z,25.03
2018-12-20T02:43:37.617Z,25.01
2018-12-20T02:45:44.363Z,25.12
2018-12-20T02:47:51.275Z,25.08
2018-12-20T02:49:58.298Z,24.96
2018-12-20T02:52:05.233Z,24.88
2018-12-20T02:54:12.543Z,24.77
2018-12-20T02:56:19.460Z,24.72
2018-12-20T02:58:26.226Z,24.64
2018-12-20T03:00:32.987Z,24.70
2018-12-20T03:02:39.889Z,24.56
2018-12-20T03:04:46.790Z,24.56
2018-12-20T03:06:54.048Z,24.60
2018-12-20T03:09:00.899Z,24.47
2018-12-20T03:11:07.658Z,24.48
2018-12-20T03:13:14.429Z,24.39
2018-12-20T03:15:21.262Z,24.38
2018-12-20T03:17:27.693Z,24.37
2018-12-20T03:19:34.240Z,24.40
2018-12-20T03:21:40.809Z,24.26
2018-12-20T03:23:47.302Z,24.36
2018-12-20T03:25:54.255Z,24.42
2018-12-20T03:28:00.922Z,24.48
2018-12-20T03:30:07.571Z,24.48
2018-12-20T03:32:14.167Z,24.40
2018-12-20T03:34:20.800Z,24.44
2018-12-20T03:36:27.577Z,24.49
2018-12-20T03:38:34.639Z,24.46
2018-12-20T03:40:41.713Z,24.47
2018-12-20T03:42:48.202Z,24.34
2018-12-20T03:44:54.797Z,24.36
2018-12-20T03:47:01.614Z,24.29
2018-12-20T03:49:08.058Z,24.25
2018-12-20T03:51:14.492Z,24.29
2018-12-20T03:53:21.163Z,24.29
2018-12-20T03:55:27.874Z,24.29
2018-12-20T03:57:34.122Z,24.29
2018-12-20T03:59:40.292Z,24.16
2018-12-20T04:01:46.440Z,24.20
2018-12-20T04:03:52.678Z,24.16
2018-12-20T04:05:59.008Z,24.19
2018-12-20T04:08:05.814Z,24.07
2018-12-20T04:10:12.841Z,24.01
2018-12-20T04:12:19.721Z,24.07
2018-12-20T04:14:26.323Z,23.92
2018-12-20T04:16:33.144Z,23.87
2018-12-20T04:18:40.071Z,23.85
2018-12-20T04:20:47.390Z,23.81
2018-12-20T04:30:06.199Z,23.54
2018-12-20T04:32:13.287Z,23.46
2018-12-20T04:34:19.963Z,23.50
2018-12-20T04:36:26.863Z,23.60
2018-12-20T04:38:33.738Z,23.71
2018-12-20T04:40:40.456Z,23.68
2018-12-20T04:42:50.062Z,23.76
2018-12-20T04:45:18.128Z,23.75
2018-12-20T04:47:31.075Z,23.80
2018-12-20T04:49:43.347Z,23.81
2018-12-20T04:51:56.980Z,23.76
2018-12-20T04:54:09.781Z,23.77
2018-12-20T04:56:16.572Z,23.81
2018-12-20T04:58:23.614Z,23.72
2018-12-20T05:00:36.637Z,23.76
2018-12-20T05:02:50.773Z,23.72
2018-12-20T05:05:23.523Z,23.71
2018-12-20T05:07:31.255Z,23.71
2018-12-20T05:09:42.324Z,23.63
2018-12-20T05:11:52.408Z,23.65
2018-12-20T05:14:05.512Z,23.46
2018-12-20T05:16:12.863Z,23.36
2018-12-20T05:18:28.126Z,23.37
2018-12-20T05:20:39.178Z,23.43
2018-12-20T05:22:50.083Z,23.38
2018-12-20T05:25:03.092Z,23.34
2018-12-20T05:27:13.429Z,23.34
2018-12-20T05:29:24.429Z,23.22
2018-12-20T05:31:33.990Z,23.20
2018-12-20T05:33:45.222Z,23.19
2018-12-20T05:35:52.276Z,23.26
2018-12-20T05:38:00.795Z,23.27
2018-12-20T05:40:11.037Z,22.91
2018-12-20T05:42:21.230Z,23.19
2018-12-20T05:44:28.293Z,23.18
2018-12-20T05:46:35.142Z,23.22
2018-12-20T05:48:49.491Z,23.27
2018-12-20T05:51:02.238Z,23.22
2018-12-20T05:53:09.981Z,23.32
2018-12-20T05:55:22.834Z,23.26
2018-12-20T05:57:36.629Z,23.23
2018-12-20T05:59:48.818Z,23.24
2018-12-20T06:02:04.847Z,23.21
2018-12-20T06:04:40.528Z,23.22
2018-12-20T06:06:52.861Z,23.22
2018-12-20T06:09:06.376Z,23.10
2018-12-20T06:11:13.296Z,23.15
2018-12-20T06:13:20.033Z,23.17
2018-12-20T06:15:26.627Z,23.15
2018-12-20T06:17:33.330Z,23.11
2018-12-20T06:19:40.024Z,22.98
2018-12-20T06:21:46.648Z,23.00
2018-12-20T06:23:56.979Z,23.08
2018-12-20T06:26:10.753Z,23.18
2018-12-20T06:28:25.130Z,23.17
2018-12-20T06:30:36.750Z,23.07
2018-12-20T06:32:48.009Z,22.95
2018-12-20T06:34:58.359Z,22.89
2018-12-20T06:37:10.202Z,22.89
2018-12-20T06:39:21.613Z,22.92
2018-12-20T06:41:30.097Z,22.95
2018-12-20T06:43:40.348Z,22.96
2018-12-20T06:45:47.178Z,23.01
2018-12-20T06:47:53.902Z,22.98
2018-12-20T06:50:00.735Z,22.92
2018-12-20T06:52:07.593Z,22.94
2018-12-20T06:54:18.367Z,22.87
2018-12-20T06:56:24.962Z,22.84
2018-12-20T06:58:35.438Z,22.90
2018-12-20T07:00:46.929Z,22.88
2018-12-20T07:02:53.666Z,22.91
2018-12-20T07:05:00.270Z,22.92
2018-12-20T07:07:06.983Z,22.88
2018-12-20T07:09:13.754Z,22.81
2018-12-20T07:11:20.445Z,22.80
2018-12-20T07:13:27.058Z,22.84
2018-12-20T07:15:33.838Z,22.81
2018-12-20T07:17:40.318Z,22.72
2018-12-20T07:19:47.119Z,22.68
2018-12-20T07:21:53.803Z,22.71
2018-12-20T07:24:00.245Z,22.64
2018-12-20T07:26:06.947Z,22.64
2018-12-20T07:28:17.613Z,22.58
2018-12-20T07:30:28.852Z,22.61
2018-12-20T07:32:35.518Z,22.42
2018-12-20T07:34:47.846Z,22.43
2018-12-20T07:36:50.783Z,22.52
2018-12-20T07:38:57.386Z,22.50
2018-12-20T07:41:03.806Z,22.57
2018-12-20T07:43:10.578Z,22.54
2018-12-20T07:45:17.487Z,22.58
2018-12-20T07:47:24.959Z,22.58
2018-12-20T07:49:31.717Z,22.57
2018-12-20T07:51:38.650Z,22.66
2018-12-20T07:53:45.162Z,22.70
2018-12-20T07:55:51.795Z,22.85
2018-12-20T07:57:58.392Z,22.97
2018-12-20T08:00:05.282Z,23.06
2018-12-20T08:02:11.913Z,23.20
2018-12-20T08:04:18.362Z,23.21
2018-12-20T08:06:24.972Z,23.21
2018-12-20T08:08:31.502Z,23.20
2018-12-20T08:10:38.157Z,23.19
2018-12-20T08:12:45.053Z,23.03
2018-12-20T08:17:29.511Z,23.10
2018-12-20T08:19:36.658Z,23.05
2018-12-20T08:21:43.204Z,22.98
2018-12-20T08:23:50.048Z,22.96
2018-12-20T08:25:56.737Z,22.95
2018-12-20T08:28:03.637Z,22.88
2018-12-20T08:30:10.721Z,22.99
2018-12-20T08:32:17.371Z,22.90
2018-12-20T08:34:24.074Z,22.88
2018-12-20T08:36:30.613Z,22.82
2018-12-20T08:38:37.272Z,22.78
2018-12-20T08:40:43.998Z,22.83
2018-12-20T08:42:50.551Z,22.73
2018-12-20T08:44:57.194Z,22.67
2018-12-20T08:47:03.810Z,22.77
2018-12-20T08:49:10.338Z,22.61
2018-12-20T08:51:17.346Z,22.62
2018-12-20T08:53:24.384Z,22.58
2018-12-20T08:55:30.964Z,22.52
2018-12-20T08:57:37.411Z,22.56
2018-12-20T08:59:43.946Z,22.45
2018-12-20T09:01:50.778Z,22.40
2018-12-20T09:03:57.454Z,22.23
2018-12-20T09:06:04.093Z,22.31
2018-12-20T09:08:10.969Z,22.38
2018-12-20T09:10:17.662Z,22.42
2018-12-20T09:12:24.309Z,22.61
2018-12-20T09:14:30.955Z,22.68
2018-12-20T09:16:37.624Z,22.80
2018-12-20T09:18:44.195Z,22.91
2018-12-20T09:20:50.795Z,23.09
2018-12-20T09:22:57.284Z,23.13
2018-12-20T09:25:03.806Z,23.17
2018-12-20T09:27:10.466Z,23.17
2018-12-20T09:29:16.940Z,23.15
2018-12-20T09:31:23.414Z,23.09
2018-12-20T09:33:30.221Z,23.05
2018-12-20T09:35:36.830Z,23.01
2018-12-20T09:37:43.418Z,23.04
2018-12-20T09:39:50.249Z,22.90
2018-12-20T09:41:57.053Z,22.94
2018-12-20T09:44:03.726Z,22.87
2018-12-20T09:46:10.470Z,22.86
2018-12-20T09:48:17.352Z,22.86
2018-12-20T09:50:23.930Z,22.85
2018-12-20T09:52:31.012Z,22.85
2018-12-20T09:54:37.693Z,22.77
2018-12-20T09:56:44.291Z,22.77
2018-12-20T09:58:50.998Z,22.71
2018-12-20T10:00:57.560Z,22.69
2018-12-20T10:03:04.320Z,22.70
2018-12-20T10:05:11.012Z,22.72
2018-12-20T10:07:17.599Z,22.65
2018-12-20T10:09:24.091Z,22.53
2018-12-20T10:11:30.791Z,22.44
2018-12-20T10:13:37.466Z,22.41
2018-12-20T10:15:43.999Z,22.36
2018-12-20T10:17:50.884Z,22.35
2018-12-20T10:19:58.115Z,22.43
2018-12-20T10:22:04.779Z,22.49
2018-12-20T10:24:11.301Z,22.60
2018-12-20T10:26:18.001Z,22.79
2018-12-20T10:28:24.562Z,22.94
2018-12-20T10:30:31.274Z,23.06
2018-12-20T10:32:37.694Z,23.21
2018-12-20T10:34:44.463Z,23.17
2018-12-20T10:36:51.117Z,23.11
2018-12-20T10:38:58.066Z,23.20
2018-12-20T10:41:04.827Z,23.18
2018-12-20T10:43:11.817Z,23.11
2018-12-20T10:45:18.583Z,23.10
2018-12-20T10:47:29.138Z,23.04
2018-12-20T10:49:35.396Z,23.02
2018-12-20T10:51:42.046Z,22.96
2018-12-20T10:53:48.853Z,22.95
2018-12-20T10:55:55.619Z,22.87
2018-12-20T10:58:02.399Z,22.90
2018-12-20T11:00:10.106Z,22.89
2018-12-20T11:02:21.201Z,22.83
2018-12-20T11:04:32.390Z,22.83
2018-12-20T11:06:43.564Z,22.78
2018-12-20T11:08:54.949Z,22.75
2018-12-20T11:11:07.791Z,22.78
2018-12-20T11:13:18.877Z,22.77
2018-12-20T11:15:26.066Z,22.78
2018-12-20T11:17:37.381Z,22.79
2018-12-20T11:19:41.287Z,22.96
2018-12-20T11:21:47.995Z,23.10
2018-12-20T11:23:54.598Z,23.19
2018-12-20T11:26:01.165Z,23.29
2018-12-20T11:28:07.874Z,23.29
2018-12-20T11:30:14.874Z,23.30
2018-12-20T11:32:21.559Z,23.36
2018-12-20T11:34:27.953Z,23.27
2018-12-20T11:36:34.728Z,23.24
2018-12-20T11:38:41.374Z,23.17
2018-12-20T11:40:47.849Z,23.09
2018-12-20T11:42:54.385Z,23.09
2018-12-20T11:45:01.090Z,23.01
2018-12-20T11:47:12.067Z,23.02
2018-12-20T11:49:18.798Z,23.00
2018-12-20T11:51:25.255Z,22.96
2018-12-20T11:53:31.753Z,22.90
2018-12-20T11:55:38.426Z,22.88
2018-12-20T11:57:45.337Z,22.83
2018-12-20T11:59:52.167Z,22.79
2018-12-20T12:01:58.768Z,22.76
2018-12-20T12:04:05.306Z,22.71
2018-12-20T12:06:12.096Z,22.75
2018-12-20T12:08:18.809Z,22.68
2018-12-20T12:10:25.398Z,22.73
2018-12-20T12:12:31.883Z,22.70
2018-12-20T12:14:38.538Z,22.70
2018-12-20T12:16:45.020Z,22.70
2018-12-20T12:18:52.019Z,22.67
2018-12-20T12:20:58.630Z,22.77
2018-12-20T12:23:05.065Z,22.92
2018-12-20T12:25:12.800Z,23.01
2018-12-20T12:27:19.458Z,23.15
2018-12-20T12:29:26.165Z,23.25
2018-12-20T12:31:32.819Z,23.40
2018-12-20T12:33:39.616Z,23.37
2018-12-20T12:35:46.710Z,23.45
2018-12-20T12:37:53.357Z,23.54
2018-12-20T12:40:00.054Z,23.61
2018-12-20T12:42:06.570Z,23.70
2018-12-20T12:44:13.075Z,23.83
2018-12-20T12:46:19.865Z,23.86
2018-12-20T12:48:26.329Z,24.00
2018-12-20T12:50:32.427Z,24.04
2018-12-20T12:52:38.980Z,24.11
2018-12-20T12:54:45.562Z,24.15
2018-12-20T12:56:52.237Z,24.20
2018-12-20T12:58:59.274Z,24.31
2018-12-20T13:01:06.117Z,24.37
2018-12-20T13:03:12.604Z,24.39
2018-12-20T13:05:19.267Z,24.45
2018-12-20T13:07:26.031Z,24.56
2018-12-20T13:09:32.651Z,24.75
2018-12-20T13:11:39.346Z,24.80
2018-12-20T13:13:46.040Z,24.88
2018-12-20T13:15:52.566Z,24.97
2018-12-20T13:17:59.255Z,25.04
2018-12-20T13:20:06.366Z,25.08
2018-12-20T13:22:12.809Z,25.07
2018-12-20T13:24:19.477Z,24.88
2018-12-20T13:26:26.048Z,24.72
2018-12-20T13:28:32.859Z,24.65
2018-12-20T13:30:39.472Z,24.68
2018-12-20T13:32:46.121Z,24.59
2018-12-20T13:34:52.601Z,24.48
2018-12-20T13:36:59.498Z,24.41
2018-12-20T13:39:07.674Z,24.33
2018-12-20T13:41:14.229Z,24.30
2018-12-20T13:43:20.919Z,24.25
2018-12-20T13:45:27.764Z,24.18
2018-12-20T13:47:34.375Z,24.08
2018-12-20T13:49:40.951Z,24.01
2018-12-20T13:51:47.637Z,24.09
2018-12-20T13:53:54.379Z,24.27
2018-12-20T13:56:01.085Z,24.49
2018-12-20T13:58:07.672Z,24.66
2018-12-20T14:00:17.068Z,24.85
2018-12-20T14:02:23.874Z,25.00
2018-12-20T14:04:30.148Z,25.19
2018-12-20T14:06:36.530Z,25.33
2018-12-20T14:08:43.487Z,25.32
2018-12-20T14:10:50.252Z,25.24
2018-12-20T14:12:56.842Z,25.15
2018-12-20T14:15:03.497Z,24.98
2018-12-20T14:17:10.627Z,24.87
2018-12-20T14:19:17.846Z,24.79
2018-12-20T14:21:26.665Z,24.70
2018-12-20T14:23:33.745Z,24.64
2018-12-20T14:25:40.344Z,24.62
2018-12-20T14:27:46.863Z,24.62
2018-12-20T14:29:53.599Z,24.55
2018-12-20T14:32:00.503Z,24.48
2018-12-20T14:34:06.638Z,24.47
2018-12-20T14:36:13.322Z,24.51
2018-12-20T14:38:19.805Z,24.43
2018-12-20T14:40:26.982Z,24.43
2018-12-20T14:42:33.775Z,24.48
2018-12-20T14:44:40.590Z,24.43
2018-12-20T14:46:47.244Z,24.37
2018-12-20T14:48:54.792Z,24.40
2018-12-20T14:51:01.587Z,24.21
2018-12-20T14:53:17.917Z,24.42
2018-12-20T14:55:26.601Z,24.56
2018-12-20T14:57:33.297Z,24.77
2018-12-20T14:59:47.993Z,24.91
2018-12-20T15:02:01.528Z,25.12
2018-12-20T15:04:15.957Z,25.24
2018-12-20T15:06:30.275Z,25.36
2018-12-20T15:08:43.576Z,25.25
2018-12-20T15:10:56.014Z,25.18
2018-12-20T15:13:09.965Z,25.02
2018-12-20T15:15:22.069Z,25.05
2018-12-20T15:17:37.159Z,25.03
2018-12-20T15:19:45.397Z,24.99
2018-12-20T15:22:00.212Z,24.85
2018-12-20T15:24:07.642Z,24.78
2018-12-20T15:26:14.187Z,24.65
2018-12-20T15:28:23.944Z,24.69
2018-12-20T15:30:40.074Z,24.54
2018-12-20T15:32:54.443Z,24.62
2018-12-20T15:35:06.873Z,24.55
2018-12-20T15:37:18.153Z,24.58
2018-12-20T15:39:36.951Z,24.57
2018-12-20T15:41:46.253Z,24.62
2018-12-20T15:43:57.108Z,24.57
2018-12-20T15:46:04.349Z,24.60
2018-12-20T15:48:11.189Z,24.54
2018-12-20T15:50:22.543Z,24.58
2018-12-20T15:52:34.893Z,24.52
2018-12-20T15:54:48.593Z,24.63
2018-12-20T15:57:00.725Z,24.66
2018-12-20T15:59:10.888Z,24.77
2018-12-20T16:01:22.179Z,24.82
2018-12-20T16:03:32.734Z,24.97
2018-12-20T16:05:39.962Z,25.16
2018-12-20T16:07:51.166Z,25.37
2018-12-20T16:10:05.581Z,25.49
2018-12-20T16:12:19.538Z,25.59
2018-12-20T16:14:31.420Z,25.49
2018-12-20T16:16:43.717Z,25.55
2018-12-20T16:19:04.713Z,25.50
2018-12-20T16:21:07.060Z,25.46
2018-12-20T16:23:18.497Z,25.33
2018-12-20T16:25:27.040Z,25.34
2018-12-20T16:27:38.226Z,25.23
2018-12-20T16:29:51.405Z,25.17
2018-12-20T16:32:07.495Z,25.11
2018-12-20T16:34:22.802Z,25.05
2018-12-20T16:36:36.328Z,25.02
2018-12-20T16:38:48.864Z,24.95
2018-12-20T16:40:58.542Z,24.99
2018-12-20T16:43:10.543Z,25.04
2018-12-20T16:45:24.594Z,24.94
2018-12-20T16:47:36.411Z,24.88
2018-12-20T16:49:51.476Z,24.89
2018-12-20T16:52:05.771Z,24.89
2018-12-20T16:54:23.323Z,24.91
2018-12-20T16:56:32.170Z,24.88
2018-12-20T16:58:43.967Z,24.68
2018-12-20T17:00:54.017Z,24.82
2018-12-20T17:03:02.094Z,24.83
2018-12-20T17:05:13.640Z,24.77
2018-12-20T17:07:24.923Z,24.76
2018-12-20T17:09:36.742Z,24.73
2018-12-20T17:11:45.257Z,24.72
2018-12-20T17:13:57.746Z,24.79
2018-12-20T17:18:29.999Z,24.80
2018-12-20T17:20:41.929Z,24.78
2018-12-20T17:22:54.620Z,24.77
2018-12-20T17:25:05.322Z,24.72
2018-12-20T17:27:18.809Z,24.63
2018-12-20T17:29:30.874Z,24.67
2018-12-20T17:31:40.310Z,24.60
2018-12-20T17:33:55.069Z,24.49
2018-12-20T17:36:01.971Z,24.42
2018-12-20T17:38:10.927Z,24.22
2018-12-20T17:40:22.817Z,24.30
2018-12-20T17:42:30.687Z,24.31
2018-12-20T17:44:37.493Z,24.28
2018-12-20T17:46:44.306Z,24.21
2018-12-20T17:48:55.268Z,24.09
2018-12-20T17:51:02.406Z,24.09
2018-12-20T17:53:09.291Z,24.09
2018-12-20T17:55:19.984Z,24.05
2018-12-20T17:57:26.829Z,24.28
2018-12-20T17:59:33.414Z,24.38
2018-12-20T18:01:40.431Z,24.55
2018-12-20T18:03:47.101Z,24.69
2018-12-20T18:05:54.082Z,24.84
2018-12-20T18:08:03.876Z,24.96
2018-12-20T18:10:16.724Z,25.08
2018-12-20T18:12:28.880Z,24.97
2018-12-20T18:14:39.437Z,24.89
2018-12-20T18:16:46.086Z,24.90
2018-12-20T18:18:52.889Z,24.80
2018-12-20T18:21:02.884Z,24.76
2018-12-20T18:25:26.794Z,24.57
2018-12-20T18:27:34.547Z,24.49
2018-12-20T18:29:45.416Z,24.47
2018-12-20T18:31:55.277Z,24.41
2018-12-20T18:34:07.343Z,24.34
2018-12-20T18:36:14.453Z,24.26
2018-12-20T18:38:24.140Z,24.27
2018-12-20T18:40:36.166Z,24.24
2018-12-20T18:42:48.222Z,24.23
2018-12-20T18:45:02.823Z,24.26
2018-12-20T18:47:14.387Z,24.19
2018-12-20T18:49:21.492Z,24.20
2018-12-20T18:51:29.828Z,24.11
2018-12-20T18:53:45.225Z,24.15
2018-12-20T18:55:52.128Z,24.10
2018-12-20T18:57:58.676Z,24.05
2018-12-20T19:00:05.522Z,24.05
2018-12-20T19:02:12.173Z,23.98
2018-12-20T19:04:18.777Z,24.23
2018-12-20T19:06:25.503Z,24.37
2018-12-20T19:08:32.142Z,24.55
2018-12-20T19:10:38.844Z,24.77
2018-12-20T19:15:29.066Z,25.22
2018-12-20T19:17:35.862Z,25.29
2018-12-20T19:19:43.061Z,25.23
2018-12-20T19:21:59.520Z,25.25
2018-12-20T19:26:36.783Z,25.21
2018-12-20T19:28:43.808Z,25.24
2018-12-20T19:30:50.765Z,25.33
2018-12-20T19:32:58.034Z,25.19
2018-12-20T19:35:05.069Z,25.02
2018-12-20T19:37:18.910Z,24.99
2018-12-20T19:39:26.750Z,25.01
2018-12-20T19:41:33.703Z,24.85
2018-12-20T19:43:47.034Z,24.91
2018-12-20T19:45:54.754Z,24.88
2018-12-20T19:48:01.530Z,24.85
2018-12-20T19:50:13.726Z,24.79
2018-12-20T19:52:25.920Z,24.77
2018-12-20T19:54:48.092Z,24.61
2018-12-20T19:56:55.303Z,24.45
2018-12-20T19:59:02.118Z,24.50
2018-12-20T20:01:08.846Z,24.48
2018-12-20T20:03:15.820Z,24.58
2018-12-20T20:05:27.330Z,24.42
2018-12-20T20:07:34.418Z,24.50
2018-12-20T20:09:40.962Z,24.56
2018-12-20T20:11:47.609Z,24.59
2018-12-20T20:13:54.229Z,24.59
2018-12-20T20:16:00.881Z,24.56
2018-12-20T20:18:07.740Z,24.52
2018-12-20T20:20:14.626Z,24.41
2018-12-20T20:22:22.121Z,24.47
2018-12-20T20:24:28.397Z,24.57
2018-12-20T20:26:35.066Z,24.41
2018-12-20T20:28:41.849Z,24.46
2018-12-20T20:30:48.394Z,24.46
2018-12-20T20:33:02.157Z,24.58
2018-12-20T20:35:09.864Z,24.74
2018-12-20T20:37:16.550Z,24.91
2018-12-20T20:39:23.658Z,25.03
2018-12-20T20:41:30.038Z,25.13
2018-12-20T20:43:36.783Z,25.22
2018-12-20T20:45:43.447Z,25.14
2018-12-20T20:47:50.130Z,25.11
2018-12-20T20:49:57.370Z,25.13
2018-12-20T20:52:04.187Z,25.17
2018-12-20T20:54:10.735Z,25.16
2018-12-20T20:56:17.957Z,25.03
2018-12-20T20:58:24.849Z,25.06
2018-12-20T21:00:31.814Z,25.02
2018-12-20T21:02:38.182Z,25.08
2018-12-20T21:04:45.180Z,25.02
2018-12-20T21:06:51.611Z,25.00
2018-12-20T21:08:58.352Z,24.98
2018-12-20T21:11:05.226Z,24.97
2018-12-20T21:13:11.829Z,24.84
2018-12-20T21:15:18.433Z,24.79
2018-12-20T21:17:25.182Z,24.65
2018-12-20T21:19:32.016Z,24.68
2018-12-20T21:21:38.613Z,24.73
2018-12-20T21:23:45.493Z,24.78
2018-12-20T21:25:51.976Z,24.86
2018-12-20T21:28:05.272Z,24.92
2018-12-20T21:30:19.208Z,24.83
2018-12-20T21:32:26.954Z,24.70
2018-12-20T21:34:33.664Z,24.74
2018-12-20T21:36:40.626Z,24.78
2018-12-20T21:38:47.484Z,24.92
2018-12-20T21:40:54.328Z,24.97
2018-12-20T21:43:00.690Z,24.95
2018-12-20T21:45:08.365Z,24.88
2018-12-20T21:47:15.245Z,24.88
2018-12-20T21:49:21.745Z,24.86
2018-12-20T21:51:28.417Z,24.83
2018-12-20T21:53:35.020Z,24.78
2018-12-20T21:55:41.693Z,24.69
2018-12-20T21:57:49.036Z,24.72
2018-12-20T22:00:01.137Z,24.56
2018-12-20T22:02:04.617Z,24.66
2018-12-20T22:04:11.486Z,24.87
2018-12-20T22:06:19.892Z,24.97
2018-12-20T22:08:27.122Z,25.20
2018-12-20T22:10:34.067Z,25.32
2018-12-20T22:12:40.453Z,25.51
2018-12-20T22:14:47.331Z,25.71
2018-12-20T22:16:54.201Z,25.78
2018-12-20T22:19:00.824Z,25.82
2018-12-20T22:21:08.004Z,25.69
2018-12-20T22:23:14.717Z,25.53
2018-12-20T22:25:20.954Z,25.41
2018-12-20T22:27:27.608Z,25.34
2018-12-20T22:29:34.091Z,25.16
2018-12-20T22:31:40.854Z,25.12
2018-12-20T22:33:47.467Z,25.02
2018-12-20T22:35:54.180Z,24.99
2018-12-20T22:38:00.778Z,24.98
2018-12-20T22:40:08.474Z,24.92
2018-12-20T22:42:15.530Z,24.87
2018-12-20T22:44:22.113Z,24.84
2018-12-20T22:46:29.066Z,24.82
2018-12-20T22:48:35.888Z,24.78
2018-12-20T22:50:42.620Z,24.75
2018-12-20T22:52:49.515Z,24.77
2018-12-20T22:54:56.270Z,24.68
2018-12-20T22:57:03.251Z,24.67
2018-12-20T22:59:09.935Z,24.89
2018-12-20T23:01:16.863Z,24.98
2018-12-20T23:03:23.438Z,24.93
2018-12-20T23:05:30.088Z,24.83
2018-12-20T23:07:36.699Z,24.85
2018-12-20T23:09:43.880Z,24.83
2018-12-20T23:11:50.822Z,24.84
2018-12-20T23:13:58.012Z,24.98
2018-12-20T23:16:04.698Z,25.03
2018-12-20T23:18:11.235Z,25.01
2018-12-20T23:20:17.876Z,25.19
2018-12-20T23:22:24.642Z,25.35
2018-12-20T23:24:31.365Z,25.52
2018-12-20T23:26:38.299Z,25.69
2018-12-20T23:28:44.842Z,25.87
2018-12-20T23:30:51.575Z,25.96
2018-12-20T23:32:58.455Z,25.86
2018-12-20T23:35:05.132Z,25.84
2018-12-20T23:37:11.878Z,25.91
2018-12-20T23:39:18.570Z,25.78
2018-12-20T23:41:25.202Z,25.74
2018-12-20T23:43:31.967Z,25.70
2018-12-20T23:45:38.684Z,25.78
2018-12-20T23:47:45.570Z,25.57
2018-12-20T23:49:52.165Z,25.48
2018-12-20T23:51:58.782Z,25.47
2018-12-20T23:54:05.285Z,25.60
2018-12-20T23:56:12.255Z,25.53
2018-12-20T23:58:18.863Z,25.50
